Time;durP1;ratioP1;P1;durP2;ratioP2;P2;SDS_P1;SDS_P2;PMS_P1;PMS_P2;Temp;Humidity;BMP_temperature;BMP_pressure;BME280_temperature;BME280_humidity;BME280_pressure;Samples;Min_cycle;Max_cycle;Signal;HPM_P1;HPM_P2
2024/03/19 00:00:53;;;;;;;2.55;1.60;;;10.00;90.20;;;;;;5116332;28;20227;-65
2024/03/19 00:03:22;;;;;;;2.80;1.67;;;10.10;90.20;;;;;;5117454;28;20530;-65
2024/03/19 00:06:21;;;;;;;3.08;1.60;;;10.10;90.30;;;;;;5117387;28;20200;-65
2024/03/19 00:08:48;;;;;;;2.60;1.50;;;10.10;90.30;;;;;;5116267;28;20172;-66
2024/03/19 00:14:38;;;;;;;2.85;1.67;;;10.10;90.10;;;;;;5116347;28;20156;-65
2024/03/19 00:20:27;;;;;;;3.00;1.60;;;10.10;90.00;;;;;;5115453;28;20163;-66
2024/03/19 00:22:56;;;;;;;3.55;1.77;;;10.10;89.60;;;;;;5116366;28;20173;-65
2024/03/19 00:25:24;;;;;;;2.85;1.85;;;10.10;89.40;;;;;;5115932;28;20242;-65
2024/03/19 00:27:55;;;;;;;2.97;1.60;;;10.00;89.60;;;;;;5116180;28;20176;-65
2024/03/19 00:31:20;;;;;;;3.80;2.08;;;10.10;90.00;;;;;;5115924;28;20169;-65
2024/03/19 00:37:12;;;;;;;2.60;1.75;;;10.00;90.40;;;;;;5115868;28;20156;-65
2024/03/19 00:39:42;;;;;;;2.80;2.35;;;10.00;90.90;;;;;;5115263;28;20261;-65
2024/03/19 00:42:09;;;;;;;2.80;1.90;;;10.00;91.10;;;;;;5115912;28;20173;-66
2024/03/19 00:47:58;;;;;;;2.85;1.88;;;10.10;91.40;;;;;;5115657;28;20160;-65
2024/03/19 00:57:10;;;;;;;2.80;1.65;;;10.10;91.10;;;;;;5115449;28;20156;-66
2024/03/19 01:03:01;;;;;;;6.70;1.88;;;10.10;91.10;;;;;;5115355;28;20210;-65
2024/03/19 01:05:28;;;;;;;3.30;1.60;;;10.10;91.20;;;;;;5115465;28;20200;-66
2024/03/19 01:07:56;;;;;;;2.92;1.80;;;10.00;91.30;;;;;;5115339;28;20176;-65
2024/03/19 01:13:46;;;;;;;3.00;1.90;;;10.10;91.60;;;;;;5114863;28;20514;-65
2024/03/19 01:16:12;;;;;;;3.45;1.60;;;10.10;91.50;;;;;;5116090;28;20548;-65
2024/03/19 01:22:03;;;;;;;2.67;1.95;;;10.10;91.30;;;;;;5114661;28;20610;-65
2024/03/19 01:24:30;;;;;;;2.58;1.60;;;10.00;91.20;;;;;;5115133;28;20180;-65
2024/03/19 01:27:00;;;;;;;3.22;2.00;;;10.00;91.50;;;;;;5115216;28;20206;-66
2024/03/19 01:29:32;;;;;;;3.65;1.95;;;10.00;91.40;;;;;;5115864;28;20253;-65
2024/03/19 01:31:59;;;;;;;2.80;1.60;;;10.10;91.60;;;;;;5115549;28;20179;-65
2024/03/19 01:37:48;;;;;;;3.00;2.00;;;10.00;91.80;;;;;;5114628;28;20197;-66
2024/03/19 01:43:56;;;;;;;2.97;1.83;;;10.10;91.60;;;;;;5114658;28;20400;-65
2024/03/19 01:46:28;;;;;;;2.80;1.80;;;10.10;91.50;;;;;;5114638;28;20236;-65
2024/03/19 01:48:56;;;;;;;4.40;2.47;;;10.00;91.70;;;;;;5114311;28;20294;-65
2024/03/19 01:51:26;;;;;;;2.92;2.05;;;10.10;91.80;;;;;;5114336;28;20259;-65
2024/03/19 01:57:17;;;;;;;2.75;1.75;;;10.10;91.80;;;;;;5114491;28;20563;-65
2024/03/19 01:59:45;;;;;;;2.40;1.50;;;10.10;91.80;;;;;;5113625;28;20180;-65
2024/03/19 02:08:59;;;;;;;2.95;1.98;;;10.20;91.90;;;;;;5114392;28;20190;-65
2024/03/19 02:14:51;;;;;;;3.22;2.15;;;10.20;91.70;;;;;;5114282;28;20179;-65
2024/03/19 02:20:41;;;;;;;2.60;1.40;;;10.20;92.00;;;;;;5114207;28;20162;-65
2024/03/19 02:26:32;;;;;;;2.50;1.70;;;10.20;91.80;;;;;;5113634;28;20207;-66
2024/03/19 02:28:59;;;;;;;2.70;1.60;;;10.20;91.90;;;;;;5113840;28;20181;-65
2024/03/19 02:31:28;;;;;;;2.70;1.55;;;10.20;91.90;;;;;;5113970;28;20527;-65
2024/03/19 02:33:56;;;;;;;2.75;1.45;;;10.20;91.80;;;;;;5114248;28;20228;-65
2024/03/19 02:39:46;;;;;;;3.25;2.17;;;10.20;91.70;;;;;;5114038;28;20550;-66
2024/03/19 02:45:36;;;;;;;2.30;1.30;;;10.20;91.60;;;;;;5115437;28;20236;-65
2024/03/19 02:51:25;;;;;;;2.65;1.50;;;10.10;91.80;;;;;;5117993;28;20156;-66
2024/03/19 02:57:15;;;;;;;4.25;1.90;;;10.20;91.70;;;;;;5117865;28;20201;-65
2024/03/19 02:59:41;;;;;;;2.72;1.40;;;10.20;91.60;;;;;;5117093;28;20176;-65
2024/03/19 03:02:10;;;;;;;2.38;1.35;;;10.10;91.70;;;;;;5117399;28;20223;-65
2024/03/19 03:07:59;;;;;;;2.60;1.65;;;10.10;91.60;;;;;;5117664;28;20661;-65
2024/03/19 03:13:48;;;;;;;2.50;1.40;;;10.10;91.30;;;;;;5117573;28;20156;-65
2024/03/19 03:19:37;;;;;;;3.65;1.58;;;10.10;90.90;;;;;;5117521;28;20152;-65
2024/03/19 03:22:05;;;;;;;2.42;1.27;;;10.00;91.10;;;;;;5116842;28;20223;-65
2024/03/19 03:24:34;;;;;;;2.58;1.48;;;10.00;91.50;;;;;;5118351;28;20180;-65
2024/03/19 03:30:23;;;;;;;2.55;1.40;;;10.00;91.70;;;;;;5117264;28;20148;-65
2024/03/19 03:36:13;;;;;;;4.15;1.88;;;10.00;91.40;;;;;;5116686;28;20183;-65
2024/03/19 03:39:08;;;;;;;4.25;1.85;;;10.00;91.40;;;;;;5116965;28;20173;-65
2024/03/19 03:48:50;;;;;;;2.70;1.80;;;9.90;92.50;;;;;;5116968;28;20164;-65
2024/03/19 03:51:19;;;;;;;2.53;1.25;;;9.90;92.50;;;;;;5116645;28;20212;-65
2024/03/19 03:53:53;;;;;;;3.35;2.33;;;9.90;92.60;;;;;;5116689;28;20216;-66
2024/03/19 03:56:20;;;;;;;2.20;1.30;;;9.90;92.80;;;;;;5116198;28;20188;-66
2024/03/19 03:59:37;;;;;;;6.50;1.40;;;9.90;92.90;;;;;;5116693;28;20662;-65
2024/03/19 04:05:26;;;;;;;2.95;1.60;;;9.90;92.80;;;;;;5115934;28;20691;-65
2024/03/19 04:07:55;;;;;;;2.90;1.70;;;9.90;92.60;;;;;;5116634;28;20212;-65
2024/03/19 04:13:43;;;;;;;2.30;1.25;;;9.90;92.50;;;;;;5116478;28;20209;-65
2024/03/19 04:16:10;;;;;;;2.35;1.20;;;9.90;92.40;;;;;;5116351;28;20204;-65
2024/03/19 04:19:24;;;;;;;3.00;1.63;;;9.80;92.40;;;;;;5117072;28;20215;-65
2024/03/19 04:25:14;;;;;;;2.40;1.55;;;9.80;92.30;;;;;;5116253;28;20231;-65
2024/03/19 04:31:03;;;;;;;2.80;1.52;;;9.80;92.30;;;;;;5116040;28;20160;-65
2024/03/19 04:36:51;;;;;;;3.00;1.48;;;9.80;92.20;;;;;;5115945;28;20187;-65
2024/03/19 04:42:42;;;;;;;2.50;1.42;;;9.70;92.50;;;;;;5115859;28;20148;-65
2024/03/19 04:45:11;;;;;;;2.30;1.40;;;9.70;92.30;;;;;;5114174;28;20674;-65
2024/03/19 04:47:57;;;;;;;2.20;1.33;;;9.70;91.90;;;;;;5116683;28;20529;-65
2024/03/19 04:50:24;;;;;;;3.22;1.60;;;9.70;91.80;;;;;;5115424;28;20699;-65
2024/03/19 04:56:13;;;;;;;3.20;2.15;;;9.60;92.30;;;;;;5115529;28;20171;-65
2024/03/19 05:02:04;;;;;;;5.40;3.00;;;9.50;92.60;;;;;;5115425;28;20152;-66
2024/03/19 05:04:32;;;;;;;4.80;3.33;;;9.40;92.60;;;;;;5115321;28;20173;-65
2024/03/19 05:10:21;;;;;;;3.92;3.08;;;9.40;92.80;;;;;;5115318;28;20553;-65
2024/03/19 05:16:11;;;;;;;14.68;7.57;;;9.40;93.00;;;;;;5114821;28;20229;-66
2024/03/19 05:19:27;;;;;;;8.63;5.85;;;9.30;93.00;;;;;;5116168;28;20226;-65
2024/03/19 05:21:56;;;;;;;5.68;4.07;;;9.40;93.30;;;;;;5115806;28;20204;-66
2024/03/19 05:24:24;;;;;;;7.88;4.68;;;9.40;93.20;;;;;;5116298;28;20255;-65
2024/03/19 05:26:51;;;;;;;5.13;3.90;;;9.40;93.20;;;;;;5115053;28;20214;-66
2024/03/19 05:32:39;;;;;;;7.32;4.28;;;9.40;93.40;;;;;;5114876;28;20605;-65
2024/03/19 05:38:30;;;;;;;6.15;4.35;;;9.40;93.40;;;;;;5114454;28;20155;-65
2024/03/19 05:41:45;;;;;;;4.90;3.72;;;9.50;93.30;;;;;;5114386;28;20207;-65
2024/03/19 05:44:56;;;;;;;3.70;2.75;;;9.50;93.30;;;;;;5114532;28;20558;-65
2024/03/19 05:47:23;;;;;;;4.45;3.35;;;9.40;93.50;;;;;;5115204;28;20595;-65
2024/03/19 05:49:50;;;;;;;3.60;2.40;;;9.40;93.40;;;;;;5114204;28;20180;-65
2024/03/19 05:56:35;;;;;;;3.25;2.55;;;9.40;93.90;;;;;;5114211;28;20663;-65
2024/03/19 06:02:25;;;;;;;3.10;2.50;;;9.40;93.90;;;;;;5114452;28;20147;-65
2024/03/19 06:08:14;;;;;;;3.45;2.50;;;9.40;94.30;;;;;;5113252;28;20223;-66
2024/03/19 06:11:17;;;;;;;5.85;2.47;;;9.40;94.40;;;;;;5114446;28;20173;-65
2024/03/19 06:17:07;;;;;;;3.70;3.03;;;9.50;94.30;;;;;;5113904;28;20167;-65
2024/03/19 06:22:57;;;;;;;3.45;2.30;;;9.60;94.50;;;;;;5113900;28;20246;-65
2024/03/19 06:25:24;;;;;;;2.50;1.52;;;9.60;94.50;;;;;;5112400;28;20191;-65
2024/03/19 06:27:52;;;;;;;4.25;2.70;;;9.60;94.30;;;;;;5114000;28;20620;-65
2024/03/19 06:30:19;;;;;;;2.95;1.90;;;9.70;94.20;;;;;;5113533;28;20218;-65
2024/03/19 06:32:46;;;;;;;3.50;2.40;;;9.70;93.90;;;;;;5113335;28;20219;-65
2024/03/19 06:39:08;;;;;;;6.18;3.45;;;9.70;93.90;;;;;;5113765;28;20202;-65
2024/03/19 06:41:35;;;;;;;3.03;2.20;;;9.80;94.00;;;;;;5073042;28;20170;-65
2024/03/19 06:47:30;;;;;;;2.65;1.95;;;9.80;94.30;;;;;;5050115;28;20193;-65
2024/03/19 06:49:59;;;;;;;3.60;2.30;;;9.90;94.70;;;;;;5052521;28;20278;-65
2024/03/19 06:52:26;;;;;;;2.60;1.83;;;10.00;94.20;;;;;;5067020;28;20182;-65
2024/03/19 06:54:55;;;;;;;2.80;2.03;;;10.00;94.20;;;;;;5072325;28;20193;-66
2024/03/19 06:57:22;;;;;;;3.25;2.00;;;10.10;94.10;;;;;;5071485;28;20281;-66
2024/03/19 06:59:49;;;;;;;3.22;2.10;;;10.10;93.90;;;;;;5072254;28;20582;-65
2024/03/19 07:02:18;;;;;;;3.00;1.80;;;10.20;93.70;;;;;;5071889;28;20213;-66
2024/03/19 07:04:45;;;;;;;2.85;1.80;;;10.20;93.70;;;;;;5072007;28;20760;-65
2024/03/19 07:07:13;;;;;;;3.00;1.92;;;10.40;93.70;;;;;;5071160;28;20703;-65
2024/03/19 07:09:41;;;;;;;5.25;2.05;;;10.40;93.20;;;;;;5078378;28;20181;-65
2024/03/19 07:12:09;;;;;;;3.05;1.67;;;10.50;93.10;;;;;;5071235;28;20198;-66
2024/03/19 07:14:37;;;;;;;3.70;2.13;;;10.50;93.10;;;;;;5072028;28;20218;-65
2024/03/19 07:17:05;;;;;;;3.55;1.70;;;10.60;93.30;;;;;;5071896;28;20465;-65
2024/03/19 07:19:33;;;;;;;2.75;1.88;;;10.60;92.50;;;;;;5071981;28;20182;-65
2024/03/19 07:22:00;;;;;;;3.70;1.50;;;10.70;92.40;;;;;;5071624;28;20578;-66
2024/03/19 07:24:27;;;;;;;3.73;1.77;;;10.70;92.30;;;;;;5071785;28;20927;-66
2024/03/19 07:26:54;;;;;;;3.40;1.53;;;10.80;92.30;;;;;;5071277;28;20511;-65
2024/03/19 07:29:22;;;;;;;2.90;1.83;;;10.90;92.40;;;;;;5071940;28;20515;-65
2024/03/19 07:31:49;;;;;;;3.60;2.03;;;11.10;92.40;;;;;;5073735;28;20494;-65
2024/03/19 07:34:16;;;;;;;3.90;2.47;;;11.30;92.30;;;;;;5094820;28;20429;-65
2024/03/19 07:40:09;;;;;;;3.50;1.70;;;11.80;93.50;;;;;;5096457;28;20416;-65
2024/03/19 07:43:03;;;;;;;3.47;2.43;;;12.10;93.20;;;;;;5096543;28;20419;-65
2024/03/19 07:45:31;;;;;;;4.60;3.20;;;12.40;92.60;;;;;;5079389;28;20944;-66
2024/03/19 07:48:03;;;;;;;3.67;2.20;;;12.70;90.70;;;;;;5115777;28;20841;-66
2024/03/19 07:50:32;;;;;;;3.17;2.00;;;13.00;88.60;;;;;;5116005;28;20426;-66
2024/03/19 07:52:59;;;;;;;4.30;2.10;;;13.30;89.20;;;;;;5091285;28;20446;-66
2024/03/19 07:55:26;;;;;;;4.17;2.53;;;13.70;86.00;;;;;;5086964;28;20808;-66
2024/03/19 07:57:53;;;;;;;3.57;2.00;;;14.10;83.80;;;;;;5093843;28;20949;-66
2024/03/19 08:00:20;;;;;;;3.73;1.53;;;14.60;87.90;;;;;;5090491;28;20432;-66
2024/03/19 08:02:49;;;;;;;3.40;1.43;;;15.20;81.00;;;;;;5094741;28;20471;-66
2024/03/19 08:05:16;;;;;;;3.50;2.30;;;15.50;77.50;;;;;;5095057;28;20515;-66
2024/03/19 08:07:44;;;;;;;3.87;2.40;;;15.80;75.20;;;;;;5095110;28;20479;-66
2024/03/19 08:10:12;;;;;;;3.90;2.23;;;16.00;74.40;;;;;;5094752;28;21009;-66
2024/03/19 08:12:39;;;;;;;2.60;1.40;;;16.60;78.40;;;;;;5094768;28;20503;-66
2024/03/19 08:15:09;;;;;;;2.87;1.77;;;17.20;70.30;;;;;;5094473;28;20491;-66
2024/03/19 08:17:36;;;;;;;2.40;1.30;;;17.40;66.50;;;;;;5094768;28;20449;-66
2024/03/19 08:20:06;;;;;;;4.40;2.20;;;17.70;66.50;;;;;;5094655;28;20521;-66
2024/03/19 08:22:33;;;;;;;3.27;1.50;;;18.30;66.40;;;;;;5094622;28;20488;-66
2024/03/19 08:25:00;;;;;;;3.33;2.00;;;18.80;63.30;;;;;;5094636;28;20442;-66
2024/03/19 08:27:27;;;;;;;2.80;1.70;;;19.00;61.20;;;;;;5094522;28;20870;-66
2024/03/19 08:29:54;;;;;;;2.70;1.30;;;19.30;62.60;;;;;;5094302;28;20435;-68
2024/03/19 08:32:22;;;;;;;2.70;1.60;;;19.80;63.40;;;;;;5094747;28;20513;-66
2024/03/19 08:34:49;;;;;;;2.43;1.03;;;20.20;59.00;;;;;;5094044;28;20830;-67
2024/03/19 08:37:17;;;;;;;3.13;1.33;;;20.80;56.60;;;;;;5094548;28;20519;-67
2024/03/19 08:39:44;;;;;;;2.30;1.10;;;21.20;53.20;;;;;;5094399;28;20442;-67
2024/03/19 08:42:11;;;;;;;4.00;1.50;;;21.60;51.90;;;;;;5094528;28;20442;-67
2024/03/19 08:44:38;;;;;;;3.70;1.90;;;21.90;52.40;;;;;;5093980;28;20730;-66
2024/03/19 08:47:05;;;;;;;3.80;2.00;;;22.30;48.30;;;;;;5094084;28;20529;-66
2024/03/19 08:49:32;;;;;;;3.90;2.10;;;22.20;46.60;;;;;;5093948;28;20431;-67
2024/03/19 08:51:59;;;;;;;5.03;2.37;;;22.00;47.80;;;;;;5094275;28;20527;-68
2024/03/19 08:54:29;;;;;;;3.50;2.10;;;22.00;47.70;;;;;;5094377;28;20431;-66
2024/03/19 08:56:56;;;;;;;4.33;2.20;;;22.20;49.10;;;;;;5094271;28;20977;-67
2024/03/19 08:59:23;;;;;;;4.97;2.70;;;22.30;48.00;;;;;;5094267;28;20484;-67
2024/03/19 09:01:50;;;;;;;4.30;2.13;;;22.60;47.50;;;;;;5094181;28;20792;-66
2024/03/19 09:04:17;;;;;;;4.67;2.87;;;22.80;47.00;;;;;;5093946;28;20423;-67
2024/03/19 09:06:46;;;;;;;3.70;2.63;;;23.40;47.00;;;;;;5094078;28;20435;-67
2024/03/19 09:09:14;;;;;;;5.90;3.50;;;24.30;45.50;;;;;;5093689;28;20516;-66
2024/03/19 09:11:42;;;;;;;4.13;2.60;;;25.20;45.00;;;;;;5093644;28;20471;-67
2024/03/19 09:14:09;;;;;;;5.47;3.47;;;26.00;43.90;;;;;;5093696;28;20517;-67
2024/03/19 09:16:37;;;;;;;5.30;2.83;;;26.70;40.30;;;;;;5093475;28;20427;-67
2024/03/19 09:19:04;;;;;;;5.60;4.40;;;27.30;40.10;;;;;;5093952;28;20470;-67
2024/03/19 09:21:31;;;;;;;3.43;2.67;;;27.90;35.80;;;;;;5093957;28;20948;-67
2024/03/19 09:23:58;;;;;;;3.90;2.83;;;28.00;35.20;;;;;;5093891;28;20750;-67
2024/03/19 09:26:25;;;;;;;6.20;3.07;;;27.40;34.00;;;;;;5093649;28;20497;-67
2024/03/19 09:28:53;;;;;;;3.83;3.00;;;26.50;34.40;;;;;;5093830;28;20463;-67
2024/03/19 09:31:20;;;;;;;5.37;2.50;;;25.50;34.50;;;;;;5093212;28;20433;-67
2024/03/19 09:33:48;;;;;;;9.43;3.00;;;24.70;35.40;;;;;;5093647;28;20442;-67
2024/03/19 09:36:15;;;;;;;5.00;2.70;;;24.10;36.90;;;;;;5093474;28;20506;-67
2024/03/19 09:38:48;;;;;;;4.50;2.53;;;23.80;39.10;;;;;;5093246;28;20929;-67
2024/03/19 09:41:15;;;;;;;4.20;2.70;;;24.40;40.00;;;;;;5093337;28;20488;-67
2024/03/19 09:43:43;;;;;;;4.10;3.57;;;25.20;38.50;;;;;;5093010;28;20467;-68
2024/03/19 09:46:13;;;;;;;5.20;3.20;;;25.80;36.70;;;;;;5093301;28;20505;-67
2024/03/19 09:48:41;;;;;;;4.23;3.00;;;26.50;38.00;;;;;;5093374;28;20463;-67
2024/03/19 09:51:09;;;;;;;6.13;3.30;;;27.20;36.10;;;;;;5092652;28;20436;-67
2024/03/19 09:53:37;;;;;;;4.13;3.30;;;27.90;35.80;;;;;;5093347;28;20522;-67
2024/03/19 09:56:05;;;;;;;3.90;3.13;;;28.10;34.00;;;;;;5092542;28;20467;-67
2024/03/19 09:58:33;;;;;;;4.20;3.10;;;28.00;31.80;;;;;;5093169;28;20473;-67
2024/03/19 10:01:02;;;;;;;6.00;3.17;;;27.70;32.20;;;;;;5092985;28;20487;-68
2024/03/19 10:03:30;;;;;;;4.13;2.50;;;27.50;32.50;;;;;;5093244;28;20434;-67
2024/03/19 10:05:57;;;;;;;5.17;2.70;;;28.10;34.70;;;;;;5092801;28;20518;-67
2024/03/19 10:08:24;;;;;;;4.63;2.30;;;29.00;32.60;;;;;;5093039;28;20468;-67
2024/03/19 10:10:52;;;;;;;5.00;3.10;;;29.70;32.00;;;;;;5092588;28;20492;-67
2024/03/19 10:13:20;;;;;;;4.17;2.67;;;30.50;29.60;;;;;;5092631;28;20471;-67
2024/03/19 10:15:51;;;;;;;3.20;2.20;;;30.90;26.70;;;;;;5092882;28;20433;-68
2024/03/19 10:18:18;;;;;;;3.30;2.30;;;31.20;27.60;;;;;;5092663;28;20426;-67
2024/03/19 10:20:46;;;;;;;3.93;2.40;;;31.20;26.50;;;;;;5092653;28;20467;-68
2024/03/19 10:23:13;;;;;;;3.73;2.47;;;30.90;26.80;;;;;;5092320;28;20985;-67
2024/03/19 10:25:40;;;;;;;5.77;2.50;;;31.10;26.30;;;;;;5092534;28;20458;-68
2024/03/19 10:28:09;;;;;;;4.67;3.03;;;31.40;25.60;;;;;;5092316;28;20512;-68
2024/03/19 10:30:36;;;;;;;5.43;2.63;;;31.70;26.10;;;;;;5092377;28;20433;-67
2024/03/19 10:33:08;;;;;;;4.47;2.83;;;32.00;25.20;;;;;;5092520;28;20528;-67
2024/03/19 10:35:36;;;;;;;4.00;2.40;;;32.30;25.20;;;;;;5092450;28;20420;-68
2024/03/19 10:38:05;;;;;;;3.70;2.30;;;32.70;25.30;;;;;;5092800;28;20435;-68
2024/03/19 10:40:33;;;;;;;9.10;3.27;;;32.90;23.70;;;;;;5092468;28;20458;-67
2024/03/19 10:43:02;;;;;;;5.10;2.90;;;32.90;23.50;;;;;;5092261;28;20949;-67
2024/03/19 10:45:30;;;;;;;4.90;2.83;;;33.00;23.30;;;;;;5092237;28;20558;-68
2024/03/19 10:47:57;;;;;;;5.63;2.57;;;33.00;23.40;;;;;;5092172;28;20474;-68
2024/03/19 10:50:25;;;;;;;3.30;2.23;;;33.20;23.60;;;;;;5092537;28;20863;-68
2024/03/19 10:52:57;;;;;;;3.63;2.17;;;33.40;22.60;;;;;;5092203;28;20438;-68
2024/03/19 10:55:26;;;;;;;3.30;2.17;;;33.40;22.20;;;;;;5091906;28;20423;-68
2024/03/19 10:57:53;;;;;;;3.87;2.00;;;33.60;21.10;;;;;;5092069;28;20986;-68
2024/03/19 11:00:25;;;;;;;4.00;2.13;;;33.70;21.30;;;;;;5092164;28;20484;-68
2024/03/19 11:02:57;;;;;;;4.40;2.13;;;33.60;21.00;;;;;;5092234;28;20458;-68
2024/03/19 11:05:24;;;;;;;3.60;1.67;;;33.70;21.20;;;;;;5092088;28;20416;-68
2024/03/19 11:07:52;;;;;;;2.83;1.50;;;33.80;20.50;;;;;;5095306;28;20496;-68
2024/03/19 11:10:39;;;;;;;3.17;1.83;;;33.90;20.50;;;;;;5095678;28;20431;-67
2024/03/19 11:13:07;;;;;;;4.23;1.83;;;34.00;20.00;;;;;;5095543;28;20503;-67
2024/03/19 11:15:35;;;;;;;2.67;1.37;;;33.60;18.90;;;;;;5095708;28;20948;-67
2024/03/19 11:18:06;;;;;;;3.00;1.50;;;33.40;19.70;;;;;;5095747;28;20526;-67
2024/03/19 11:20:35;;;;;;;3.57;1.30;;;33.60;20.10;;;;;;5095508;28;20429;-67
2024/03/19 11:23:05;;;;;;;3.30;1.70;;;33.80;19.00;;;;;;5095860;28;20469;-67
2024/03/19 11:25:32;;;;;;;4.53;2.00;;;33.80;18.60;;;;;;5095409;28;20430;-67
2024/03/19 11:27:59;;;;;;;2.47;1.47;;;33.80;18.50;;;;;;5095724;28;20801;-67
2024/03/19 11:30:26;;;;;;;3.50;1.57;;;33.80;16.90;;;;;;5095764;28;20427;-67
2024/03/19 11:32:56;;;;;;;4.00;1.77;;;33.70;17.70;;;;;;5095759;28;20431;-67
2024/03/19 11:35:24;;;;;;;3.27;1.67;;;33.70;18.00;;;;;;5095346;28;20419;-67
2024/03/19 11:37:52;;;;;;;6.30;2.20;;;33.60;18.90;;;;;;5094349;28;20491;-68
2024/03/19 11:40:20;;;;;;;2.90;1.70;;;33.70;19.10;;;;;;5095462;28;20426;-67
2024/03/19 11:42:49;;;;;;;3.30;2.17;;;33.80;19.40;;;;;;5095424;28;21005;-67
2024/03/19 11:45:18;;;;;;;4.40;2.47;;;33.90;19.80;;;;;;5093829;28;20446;-67
2024/03/19 11:47:45;;;;;;;3.33;2.20;;;33.90;19.80;;;;;;5093618;28;20514;-67
2024/03/19 11:50:18;;;;;;;2.73;1.77;;;33.90;20.20;;;;;;5095157;28;20427;-67
2024/03/19 11:52:46;;;;;;;3.00;1.80;;;34.00;20.10;;;;;;5095359;28;20472;-67
2024/03/19 11:55:13;;;;;;;3.40;1.73;;;34.20;19.70;;;;;;5095319;28;20465;-67
2024/03/19 11:57:40;;;;;;;3.00;1.83;;;34.20;20.00;;;;;;5094970;28;20910;-67
2024/03/19 12:00:12;;;;;;;3.10;1.80;;;34.10;19.20;;;;;;5094968;28;20439;-67
2024/03/19 12:02:41;;;;;;;3.03;1.60;;;34.10;19.60;;;;;;5095058;28;20498;-67
2024/03/19 12:08:00;;;;;;;3.03;1.30;;;34.10;19.40;;;;;;5095223;28;20569;-67
2024/03/19 12:10:28;;;;;;;3.10;1.93;;;34.10;18.70;;;;;;5093924;28;20443;-67
2024/03/19 12:12:56;;;;;;;3.10;1.70;;;34.10;18.70;;;;;;5094819;28;20431;-67
2024/03/19 12:15:24;;;;;;;2.77;1.70;;;34.00;18.60;;;;;;5094714;28;20435;-67
2024/03/19 12:17:54;;;;;;;3.10;1.80;;;34.00;18.90;;;;;;5093472;28;20477;-67
2024/03/19 12:20:22;;;;;;;7.20;2.23;;;34.00;19.20;;;;;;5094709;28;20565;-66
2024/03/19 12:22:49;;;;;;;3.63;1.67;;;33.90;19.10;;;;;;5094156;28;20439;-67
2024/03/19 12:25:18;;;;;;;3.03;1.80;;;33.80;18.80;;;;;;5094017;28;20471;-67
2024/03/19 12:27:45;;;;;;;4.70;1.50;;;33.60;18.00;;;;;;5094688;28;20435;-67
2024/03/19 12:30:15;;;;;;;3.70;1.60;;;33.50;18.70;;;;;;5094522;28;20556;-67
2024/03/19 12:32:59;;;;;;;2.87;1.40;;;33.30;17.20;;;;;;5089769;28;21224;-67
2024/03/19 12:35:28;;;;;;;3.73;1.40;;;33.10;17.50;;;;;;5093763;28;20438;-67
2024/03/19 12:37:56;;;;;;;3.27;1.70;;;32.80;16.90;;;;;;5093554;28;20515;-66
2024/03/19 12:40:24;;;;;;;3.10;1.30;;;32.60;17.90;;;;;;5093372;28;20480;-67
2024/03/19 12:42:52;;;;;;;2.80;1.00;;;32.30;16.80;;;;;;5093829;28;20568;-67
2024/03/19 12:45:21;;;;;;;6.63;1.20;;;32.20;17.30;;;;;;5093544;28;21153;-67
2024/03/19 12:47:50;;;;;;;2.83;1.40;;;32.00;18.00;;;;;;5092944;28;20458;-66
2024/03/19 12:50:19;;;;;;;3.50;1.57;;;31.70;16.90;;;;;;5093870;28;20474;-67
2024/03/19 12:52:47;;;;;;;2.93;1.20;;;31.50;17.70;;;;;;5093466;28;20496;-67
2024/03/19 12:55:15;;;;;;;4.77;1.37;;;31.40;17.70;;;;;;5094052;28;20435;-66
2024/03/19 12:57:42;;;;;;;3.10;1.53;;;31.20;18.60;;;;;;5094191;28;20435;-67
2024/03/19 13:00:11;;;;;;;5.30;1.37;;;31.00;19.30;;;;;;5093974;28;20457;-67
2024/03/19 13:02:38;;;;;;;2.60;1.20;;;30.90;19.80;;;;;;5093810;28;20443;-67
2024/03/19 13:05:07;;;;;;;4.80;1.47;;;30.70;19.60;;;;;;5093415;28;20518;-67
2024/03/19 13:07:34;;;;;;;2.67;1.23;;;30.40;19.20;;;;;;5093809;28;20493;-67
2024/03/19 13:10:03;;;;;;;3.40;1.30;;;30.30;19.70;;;;;;5093831;28;20467;-67
2024/03/19 13:12:30;;;;;;;2.90;1.77;;;30.10;19.90;;;;;;5093699;28;20419;-67
2024/03/19 13:14:57;;;;;;;3.00;1.07;;;29.70;19.10;;;;;;5093483;28;20428;-67
2024/03/19 13:17:24;;;;;;;2.23;0.90;;;29.30;19.00;;;;;;5093811;28;20473;-67
2024/03/19 13:19:51;;;;;;;4.20;1.47;;;29.10;19.30;;;;;;5093409;28;20840;-67
2024/03/19 13:22:23;;;;;;;3.77;1.10;;;28.80;20.80;;;;;;5093334;28;20468;-67
2024/03/19 13:24:50;;;;;;;2.50;0.90;;;28.60;20.90;;;;;;5093129;28;20466;-67
2024/03/19 13:27:19;;;;;;;3.20;1.40;;;28.40;20.40;;;;;;5093713;28;20439;-67
2024/03/19 13:29:46;;;;;;;6.60;1.40;;;28.20;20.80;;;;;;5093155;28;20900;-68
2024/03/19 13:32:13;;;;;;;2.70;0.90;;;28.00;20.60;;;;;;5093263;28;20437;-67
2024/03/19 13:34:40;;;;;;;2.53;1.00;;;27.80;21.30;;;;;;5093556;28;20438;-67
2024/03/19 13:37:07;;;;;;;3.33;1.00;;;27.50;20.90;;;;;;5092878;28;20480;-67
2024/03/19 13:39:34;;;;;;;3.47;0.87;;;27.20;21.60;;;;;;5092943;28;20488;-67
2024/03/19 13:42:01;;;;;;;2.40;1.13;;;27.00;21.10;;;;;;5093086;28;20587;-67
2024/03/19 13:44:30;;;;;;;2.40;1.10;;;26.60;21.50;;;;;;5093369;28;20488;-67
2024/03/19 13:46:58;;;;;;;3.50;1.40;;;26.30;21.70;;;;;;5109309;28;20497;-67
2024/03/19 13:49:26;;;;;;;2.20;0.93;;;25.90;23.80;;;;;;5113001;28;20505;-67
2024/03/19 13:51:54;;;;;;;2.30;0.90;;;25.60;24.40;;;;;;5113407;28;20900;-67
2024/03/19 13:54:21;;;;;;;2.23;0.90;;;25.30;24.80;;;;;;5113142;28;20813;-66
2024/03/19 13:56:47;;;;;;;2.33;1.00;;;24.90;25.40;;;;;;5113285;28;20481;-66
2024/03/19 13:59:15;;;;;;;3.60;1.13;;;24.70;26.20;;;;;;5113374;28;20434;-67
2024/03/19 14:01:44;;;;;;;2.83;1.40;;;24.50;25.40;;;;;;5112909;28;20433;-66
2024/03/19 14:04:11;;;;;;;4.30;1.50;;;24.20;25.40;;;;;;5112973;28;20559;-66
2024/03/19 14:06:38;;;;;;;2.30;1.03;;;24.00;25.60;;;;;;5112729;28;20430;-66
2024/03/19 14:09:05;;;;;;;5.60;2.70;;;23.80;25.90;;;;;;5113093;28;20497;-66
2024/03/19 14:11:33;;;;;;;2.80;1.27;;;23.60;26.40;;;;;;5113114;28;20536;-66
2024/03/19 14:14:00;;;;;;;2.60;1.10;;;23.40;26.60;;;;;;5112727;28;20456;-66
2024/03/19 14:16:29;;;;;;;3.03;1.20;;;23.20;26.60;;;;;;5112998;28;20434;-66
2024/03/19 14:19:04;;;;;;;3.20;1.13;;;23.10;26.40;;;;;;5113051;28;20835;-66
2024/03/19 14:21:31;;;;;;;3.33;1.20;;;22.90;26.10;;;;;;5113032;28;20432;-66
2024/03/19 14:24:02;;;;;;;3.50;1.20;;;22.70;26.60;;;;;;5112890;28;20818;-66
2024/03/19 14:26:29;;;;;;;3.50;1.23;;;22.60;27.10;;;;;;5112637;28;20480;-66
2024/03/19 14:28:56;;;;;;;2.67;1.00;;;22.50;27.40;;;;;;5112864;28;20584;-66
2024/03/19 14:31:23;;;;;;;2.10;0.83;;;22.40;27.50;;;;;;5112483;28;20477;-66
2024/03/19 14:33:50;;;;;;;6.30;1.30;;;22.30;27.00;;;;;;5112840;28;20511;-66
2024/03/19 14:36:19;;;;;;;2.00;0.67;;;22.20;26.80;;;;;;5112848;28;20434;-66
2024/03/19 14:38:52;;;;;;;2.17;1.00;;;22.10;26.40;;;;;;5112610;28;20520;-66
2024/03/19 14:41:23;;;;;;;2.20;1.00;;;21.90;27.00;;;;;;5113996;28;20429;-66
2024/03/19 14:43:50;;;;;;;4.90;1.10;;;21.80;27.20;;;;;;5117282;28;20450;-66
2024/03/19 14:46:18;;;;;;;3.30;0.70;;;21.70;27.60;;;;;;5117007;28;20508;-66
2024/03/19 14:48:45;;;;;;;3.20;1.13;;;21.70;27.40;;;;;;5116767;28;20434;-66
2024/03/19 14:51:12;;;;;;;2.53;0.90;;;21.60;28.10;;;;;;5116855;28;20426;-66
2024/03/19 14:53:41;;;;;;;2.77;1.50;;;21.50;28.30;;;;;;5117049;28;20469;-66
2024/03/19 14:56:08;;;;;;;2.77;1.07;;;21.50;28.70;;;;;;5117079;28;20453;-66
2024/03/19 14:58:35;;;;;;;2.80;1.20;;;21.40;29.60;;;;;;5117009;28;20434;-67
2024/03/19 15:01:02;;;;;;;2.50;1.10;;;21.30;29.40;;;;;;5116675;28;20434;-66
2024/03/19 15:03:31;;;;;;;2.93;1.10;;;21.20;29.50;;;;;;5116950;28;20521;-66
2024/03/19 15:05:58;;;;;;;3.13;1.47;;;21.00;29.30;;;;;;5116406;28;20497;-67
2024/03/19 15:08:25;;;;;;;2.70;1.07;;;20.90;28.80;;;;;;5116716;28;20438;-66
2024/03/19 15:10:54;;;;;;;2.90;2.40;;;20.80;28.90;;;;;;5116519;28;20569;-66
2024/03/19 15:13:21;;;;;;;2.87;1.00;;;20.70;29.20;;;;;;5116514;28;20438;-66
2024/03/19 15:15:48;;;;;;;2.30;0.90;;;20.60;29.20;;;;;;5116305;28;20514;-66
2024/03/19 15:18:15;;;;;;;2.00;0.90;;;20.60;28.40;;;;;;5116049;28;20415;-66
2024/03/19 15:20:42;;;;;;;2.80;1.37;;;20.50;28.10;;;;;;5116298;28;20472;-66
2024/03/19 15:23:14;;;;;;;5.47;1.07;;;20.40;28.40;;;;;;5116031;28;20997;-66
2024/03/19 15:25:42;;;;;;;2.60;1.00;;;20.30;28.30;;;;;;5115932;28;20781;-66
2024/03/19 15:28:12;;;;;;;2.60;0.83;;;20.20;28.40;;;;;;5116329;28;20437;-66
2024/03/19 15:30:42;;;;;;;3.20;1.47;;;20.10;29.10;;;;;;5116043;28;20469;-66
2024/03/19 15:33:11;;;;;;;4.93;1.57;;;19.90;29.90;;;;;;5116089;28;20505;-66
2024/03/19 15:35:39;;;;;;;3.33;1.40;;;19.90;30.40;;;;;;5116215;28;20536;-66
2024/03/19 15:38:07;;;;;;;3.30;1.50;;;19.80;31.00;;;;;;5116318;28;20438;-66
2024/03/19 15:40:36;;;;;;;4.60;1.80;;;19.80;31.10;;;;;;5115894;28;20521;-66
2024/03/19 15:43:03;;;;;;;3.90;1.37;;;19.70;32.10;;;;;;5115924;28;20430;-66
2024/03/19 15:45:31;;;;;;;3.67;1.30;;;19.60;32.10;;;;;;5115505;28;20573;-66